createdAt,value
2022-10-13T00:01:10.958Z,9.33
2022-10-13T00:03:39.931Z,9.36
2022-10-13T00:06:08.593Z,9.34
2022-10-13T00:08:36.377Z,9.31
2022-10-13T00:11:10.761Z,9.30
2022-10-13T00:13:37.374Z,9.27
2022-10-13T00:16:04.443Z,9.21
2022-10-13T00:18:30.979Z,9.16
2022-10-13T00:20:57.495Z,9.06
2022-10-13T00:23:24.666Z,9.04
2022-10-13T00:25:52.076Z,9.06
2022-10-13T00:28:20.232Z,8.84
2022-10-13T00:30:47.213Z,8.87
2022-10-13T00:33:14.747Z,8.75
2022-10-13T00:35:43.571Z,8.79
2022-10-13T00:38:10.812Z,8.81
2022-10-13T00:40:52.870Z,8.78
2022-10-13T00:43:25.248Z,8.69
2022-10-13T00:45:52.942Z,8.76
2022-10-13T00:48:25.782Z,8.67
2022-10-13T00:50:53.007Z,8.51
2022-10-13T00:53:25.531Z,8.55
2022-10-13T00:55:52.953Z,8.58
2022-10-13T00:58:23.293Z,8.58
2022-10-13T01:00:51.690Z,8.60
2022-10-13T01:03:21.786Z,8.55
2022-10-13T01:05:50.555Z,8.42
2022-10-13T01:08:19.151Z,8.32
2022-10-13T01:10:58.355Z,8.23
2022-10-13T01:13:50.740Z,8.01
2022-10-13T01:16:31.125Z,8.08
2022-10-13T01:19:22.162Z,8.01
2022-10-13T01:22:10.640Z,8.08
2022-10-13T01:24:47.970Z,8.09
2022-10-13T01:27:26.914Z,8.04
2022-10-13T01:30:05.107Z,7.91
2022-10-13T01:32:54.325Z,7.79
2022-10-13T01:35:32.541Z,7.81
2022-10-13T01:38:08.069Z,7.79
2022-10-13T01:40:37.575Z,7.74
2022-10-13T01:43:17.689Z,7.73
2022-10-13T01:45:58.804Z,7.74
2022-10-13T01:48:26.675Z,7.65
2022-10-13T01:50:54.229Z,7.71
2022-10-13T01:53:21.591Z,7.68
2022-10-13T01:55:58.052Z,7.63
2022-10-13T01:58:32.705Z,7.73
2022-10-13T02:01:14.040Z,7.77
2022-10-13T02:04:00.907Z,7.81
2022-10-13T02:06:33.137Z,7.84
2022-10-13T02:09:12.935Z,7.81
2022-10-13T02:11:46.925Z,7.82
2022-10-13T02:14:27.348Z,7.86
2022-10-13T02:16:56.048Z,7.93
2022-10-13T02:19:23.682Z,7.96
2022-10-13T02:21:52.244Z,8.00
2022-10-13T02:24:19.040Z,8.14
2022-10-13T02:26:45.933Z,8.07
2022-10-13T02:29:17.537Z,8.15
2022-10-13T02:31:45.149Z,8.12
2022-10-13T02:34:12.589Z,8.20
2022-10-13T02:36:40.062Z,8.28
2022-10-13T02:39:08.541Z,8.28
2022-10-13T02:41:35.192Z,8.27
2022-10-13T02:44:01.930Z,8.27
2022-10-13T02:46:28.662Z,8.30
2022-10-13T02:48:55.316Z,8.27
2022-10-13T02:51:21.900Z,8.32
2022-10-13T02:53:48.939Z,8.32
2022-10-13T02:56:15.877Z,8.19
2022-10-13T02:58:42.681Z,8.40
2022-10-13T03:01:11.808Z,8.33
2022-10-13T03:03:39.335Z,8.44
2022-10-13T03:06:06.890Z,8.39
2022-10-13T03:08:35.224Z,8.41
2022-10-13T03:11:01.884Z,8.38
2022-10-13T03:13:28.485Z,8.37
2022-10-13T03:15:55.467Z,8.47
2022-10-13T03:18:22.704Z,8.45
2022-10-13T03:20:57.344Z,8.44
2022-10-13T03:23:23.982Z,8.44
2022-10-13T03:25:50.503Z,8.46
2022-10-13T03:28:17.282Z,8.46
2022-10-13T03:30:43.887Z,8.40
2022-10-13T03:33:10.756Z,8.47
2022-10-13T03:35:37.366Z,8.46
2022-10-13T03:38:03.898Z,8.50
2022-10-13T03:40:30.475Z,8.36
2022-10-13T03:42:56.990Z,8.33
2022-10-13T03:45:23.533Z,8.46
2022-10-13T03:47:50.316Z,8.45
2022-10-13T03:50:16.823Z,8.53
2022-10-13T03:52:43.405Z,8.54
2022-10-13T03:55:10.292Z,8.55
2022-10-13T03:57:36.826Z,8.52
2022-10-13T04:00:04.043Z,8.43
2022-10-13T04:02:30.734Z,8.60
2022-10-13T04:04:57.220Z,8.63
2022-10-13T04:07:23.812Z,8.64
2022-10-13T04:09:50.380Z,8.71
2022-10-13T04:12:20.609Z,8.73
2022-10-13T04:14:47.857Z,8.80
2022-10-13T04:17:14.422Z,8.69
2022-10-13T04:19:41.054Z,8.71
2022-10-13T04:22:07.579Z,8.84
2022-10-13T04:24:34.891Z,8.87
2022-10-13T04:27:01.386Z,8.91
2022-10-13T04:29:27.983Z,8.87
2022-10-13T04:31:54.649Z,8.89
2022-10-13T04:34:21.234Z,8.93
2022-10-13T04:36:51.776Z,9.01
2022-10-13T04:39:18.665Z,9.05
2022-10-13T04:41:45.793Z,9.03
2022-10-13T04:44:12.339Z,8.88
2022-10-13T04:46:38.893Z,9.13
2022-10-13T04:49:05.441Z,9.14
2022-10-13T04:51:32.034Z,9.07
2022-10-13T04:54:05.539Z,9.14
2022-10-13T04:56:32.312Z,9.09
2022-10-13T04:58:59.813Z,9.16
2022-10-13T05:01:26.747Z,9.06
2022-10-13T05:03:59.685Z,9.13
2022-10-13T05:06:31.789Z,9.09
2022-10-13T05:08:58.429Z,9.09
2022-10-13T05:11:26.742Z,9.09
2022-10-13T05:13:54.054Z,9.17
2022-10-13T05:16:22.235Z,9.12
2022-10-13T05:18:50.031Z,9.15
2022-10-13T05:21:19.783Z,9.08
2022-10-13T05:23:46.662Z,9.16
2022-10-13T05:26:18.117Z,9.14
2022-10-13T05:28:45.725Z,9.12
2022-10-13T05:31:14.855Z,9.11
2022-10-13T05:33:42.212Z,9.04
2022-10-13T05:36:15.010Z,9.16
2022-10-13T05:38:41.540Z,9.21
2022-10-13T05:41:11.063Z,9.23
2022-10-13T05:43:39.859Z,9.24
2022-10-13T05:46:06.702Z,9.26
2022-10-13T05:48:33.428Z,9.30
2022-10-13T05:51:01.978Z,9.31
2022-10-13T05:53:32.121Z,9.27
2022-10-13T05:56:06.203Z,9.20
2022-10-13T05:58:40.766Z,9.36
2022-10-13T06:01:09.970Z,9.34
2022-10-13T06:03:37.446Z,9.35
2022-10-13T06:06:04.258Z,9.24
2022-10-13T06:08:30.956Z,9.34
2022-10-13T06:10:57.923Z,9.42
2022-10-13T06:13:24.469Z,9.32
2022-10-13T06:15:51.013Z,9.36
2022-10-13T06:18:17.549Z,9.36
2022-10-13T06:20:44.156Z,9.35
2022-10-13T06:23:10.660Z,9.35
2022-10-13T06:25:37.184Z,9.30
2022-10-13T06:28:03.865Z,9.34
2022-10-13T06:30:30.368Z,9.33
2022-10-13T06:32:56.963Z,9.33
2022-10-13T06:35:23.734Z,9.34
2022-10-13T06:37:50.320Z,9.32
2022-10-13T06:40:17.276Z,9.30
2022-10-13T06:42:49.556Z,9.44
2022-10-13T06:45:16.062Z,9.42
2022-10-13T06:47:42.624Z,9.33
2022-10-13T06:50:09.554Z,9.33
2022-10-13T06:52:36.700Z,9.28
2022-10-13T06:55:03.761Z,9.30
2022-10-13T06:57:30.552Z,9.28
2022-10-13T06:59:57.350Z,9.34
2022-10-13T07:02:23.960Z,9.38
2022-10-13T07:04:50.517Z,9.52
2022-10-13T07:07:17.072Z,9.50
2022-10-13T07:09:43.621Z,9.67
2022-10-13T07:12:10.225Z,9.68
2022-10-13T07:14:39.203Z,9.62
2022-10-13T07:17:08.235Z,9.61
2022-10-13T07:19:34.860Z,9.41
2022-10-13T07:22:01.402Z,9.73
2022-10-13T07:24:27.990Z,9.85
2022-10-13T07:26:54.483Z,10.03
2022-10-13T07:29:21.064Z,10.18
2022-10-13T07:31:47.710Z,10.32
2022-10-13T07:34:16.092Z,10.30
2022-10-13T07:36:42.737Z,10.61
2022-10-13T07:39:10.027Z,10.71
2022-10-13T07:41:37.442Z,10.68
2022-10-13T07:44:03.996Z,10.96
2022-10-13T07:46:30.599Z,10.92
2022-10-13T07:48:57.083Z,11.02
2022-10-13T07:51:23.848Z,11.00
2022-10-13T07:53:50.555Z,10.92
2022-10-13T07:56:17.295Z,10.89
2022-10-13T07:58:46.790Z,10.92
2022-10-13T08:01:14.289Z,10.87
2022-10-13T08:03:44.187Z,10.90
2022-10-13T08:06:14.435Z,10.89
2022-10-13T08:08:41.198Z,10.95
2022-10-13T08:11:13.468Z,10.98
2022-10-13T08:13:42.916Z,11.05
2022-10-13T08:16:10.166Z,11.10
2022-10-13T08:18:36.954Z,11.06
2022-10-13T08:21:33.120Z,10.95
2022-10-13T08:23:51.171Z,11.05
2022-10-13T08:26:22.105Z,11.11
2022-10-13T08:29:09.530Z,11.15
2022-10-13T08:31:35.961Z,11.14
2022-10-13T08:34:02.722Z,11.06
2022-10-13T08:36:29.293Z,11.08
2022-10-13T08:38:58.511Z,11.18
2022-10-13T08:41:30.397Z,11.22
2022-10-13T08:44:59.260Z,11.26
2022-10-13T08:47:13.117Z,11.59
2022-10-13T08:49:41.588Z,11.86
2022-10-13T08:52:23.025Z,12.10
2022-10-13T08:54:51.143Z,12.03
2022-10-13T08:57:18.691Z,11.99
2022-10-13T08:59:46.210Z,11.81
2022-10-13T09:02:31.818Z,11.87
2022-10-13T09:05:03.354Z,11.63
2022-10-13T09:07:35.246Z,11.60
2022-10-13T09:10:01.863Z,11.46
2022-10-13T09:12:28.433Z,11.29
2022-10-13T09:15:03.352Z,11.50
2022-10-13T09:17:30.373Z,11.62
2022-10-13T09:20:07.438Z,11.58
2022-10-13T09:22:40.578Z,11.72
2022-10-13T09:25:07.080Z,11.72
2022-10-13T09:27:43.733Z,11.58
2022-10-13T09:30:32.143Z,11.71
2022-10-13T09:33:04.642Z,11.62
2022-10-13T09:35:34.384Z,11.82
2022-10-13T09:38:05.623Z,11.86
2022-10-13T09:40:32.834Z,11.94
2022-10-13T09:43:02.471Z,11.99
2022-10-13T09:45:31.401Z,12.02
2022-10-13T09:48:03.413Z,12.06
2022-10-13T09:50:32.021Z,12.15
2022-10-13T09:53:29.210Z,12.26
2022-10-13T09:56:08.705Z,12.21
2022-10-13T09:58:40.025Z,12.29
2022-10-13T10:01:09.950Z,12.36
2022-10-13T10:03:38.759Z,12.50
2022-10-13T10:06:14.799Z,12.54
2022-10-13T10:09:04.943Z,12.55
2022-10-13T10:11:41.438Z,12.44
2022-10-13T10:14:22.950Z,12.53
2022-10-13T10:17:04.381Z,12.67
2022-10-13T10:19:46.906Z,12.82
2022-10-13T10:22:20.385Z,12.86
2022-10-13T10:24:55.399Z,13.18
2022-10-13T10:27:29.953Z,13.23
2022-10-13T10:30:03.709Z,13.08
2022-10-13T10:32:54.793Z,13.10
2022-10-13T10:35:52.422Z,13.04
2022-10-13T10:38:29.929Z,13.18
2022-10-13T10:41:26.484Z,13.45
2022-10-13T10:44:10.905Z,13.58
2022-10-13T10:46:45.535Z,13.74
2022-10-13T10:49:18.636Z,13.77
2022-10-13T10:51:46.077Z,14.03
2022-10-13T10:54:31.473Z,14.13
2022-10-13T10:57:09.671Z,14.11
2022-10-13T10:59:53.551Z,14.11
2022-10-13T11:02:41.324Z,14.21
2022-10-13T11:05:07.903Z,14.24
2022-10-13T11:07:34.496Z,14.28
2022-10-13T11:10:18.469Z,14.01
2022-10-13T11:13:06.274Z,14.01
2022-10-13T11:15:45.428Z,13.96
2022-10-13T11:18:49.346Z,14.08
2022-10-13T11:21:15.972Z,14.22
2022-10-13T11:23:48.787Z,14.31
2022-10-13T11:26:43.341Z,14.47
2022-10-13T11:29:19.102Z,14.54
2022-10-13T11:31:54.879Z,14.76
2022-10-13T11:34:30.083Z,14.77
2022-10-13T11:36:59.782Z,14.77
2022-10-13T11:42:19.857Z,14.84
2022-10-13T11:45:23.429Z,14.96
2022-10-13T11:50:50.328Z,15.51
2022-10-13T11:53:26.350Z,15.73
2022-10-13T11:56:03.246Z,15.47
2022-10-13T11:58:32.202Z,15.19
2022-10-13T12:01:06.529Z,15.14
2022-10-13T12:03:36.072Z,15.15
2022-10-13T12:06:07.809Z,15.14
2022-10-13T12:08:36.528Z,15.06
2022-10-13T12:11:07.588Z,14.87
2022-10-13T12:13:36.136Z,14.64
2022-10-13T12:16:06.682Z,14.48
2022-10-13T12:18:35.003Z,14.38
2022-10-13T12:21:12.593Z,14.28
2022-10-13T12:23:39.749Z,14.34
2022-10-13T12:26:06.499Z,14.32
2022-10-13T12:28:57.580Z,14.61
2022-10-13T12:31:30.667Z,14.79
2022-10-13T12:34:01.901Z,14.71
2022-10-13T12:36:34.338Z,14.49
2022-10-13T12:39:15.281Z,14.37
2022-10-13T12:41:45.126Z,14.48
2022-10-13T12:44:32.358Z,14.65
2022-10-13T12:47:03.917Z,14.42
2022-10-13T12:49:34.086Z,14.32
2022-10-13T12:52:09.753Z,14.39
2022-10-13T12:54:47.373Z,14.45
2022-10-13T12:57:20.521Z,14.60
2022-10-13T12:59:47.659Z,14.63
2022-10-13T13:02:32.779Z,14.78
2022-10-13T13:04:59.504Z,14.69
2022-10-13T13:07:37.480Z,14.60
2022-10-13T13:10:18.435Z,14.51
2022-10-13T13:12:46.479Z,14.34
2022-10-13T13:15:21.458Z,14.27
2022-10-13T13:18:04.306Z,14.29
2022-10-13T13:20:33.830Z,14.43
2022-10-13T13:23:01.016Z,14.51
2022-10-13T13:25:27.996Z,14.57
2022-10-13T13:27:54.816Z,14.53
2022-10-13T13:30:22.920Z,14.52
2022-10-13T13:32:49.718Z,14.45
2022-10-13T13:35:17.379Z,14.48
2022-10-13T13:37:51.620Z,14.56
2022-10-13T13:40:23.481Z,14.55
2022-10-13T13:42:50.079Z,14.57
2022-10-13T13:45:19.288Z,14.60
2022-10-13T13:47:46.291Z,14.62
2022-10-13T13:50:34.368Z,14.68
2022-10-13T13:53:01.355Z,14.73
2022-10-13T13:55:29.680Z,14.78
2022-10-13T13:57:57.329Z,14.80
2022-10-13T14:00:24.169Z,14.69
2022-10-13T14:02:50.767Z,14.66
2022-10-13T14:05:17.399Z,14.54
2022-10-13T14:07:44.930Z,14.54
2022-10-13T14:10:11.971Z,14.63
2022-10-13T14:12:39.141Z,14.66
2022-10-13T14:15:06.443Z,14.67
2022-10-13T14:17:33.762Z,14.75
2022-10-13T14:20:00.910Z,14.76
2022-10-13T14:22:27.737Z,14.77
2022-10-13T14:24:54.284Z,14.69
2022-10-13T14:27:21.200Z,14.63
2022-10-13T14:29:47.783Z,14.57
2022-10-13T14:32:14.399Z,14.46
2022-10-13T14:34:40.976Z,14.52
2022-10-13T14:37:07.546Z,14.48
2022-10-13T14:39:34.204Z,14.39
2022-10-13T14:42:00.725Z,14.54
2022-10-13T14:44:27.415Z,14.61
2022-10-13T14:46:53.968Z,14.63
2022-10-13T14:49:20.539Z,14.53
2022-10-13T14:51:47.050Z,14.68
2022-10-13T14:54:18.771Z,14.80
2022-10-13T14:56:45.688Z,14.66
2022-10-13T14:59:13.657Z,14.70
2022-10-13T15:01:41.752Z,14.61
2022-10-13T15:04:10.955Z,14.56
2022-10-13T15:06:39.307Z,14.51
2022-10-13T15:11:39.022Z,14.36
2022-10-13T15:14:05.860Z,14.51
2022-10-13T15:16:38.070Z,14.57
2022-10-13T15:19:05.370Z,14.63
2022-10-13T15:21:32.007Z,14.65
2022-10-13T15:23:59.300Z,14.71
2022-10-13T15:26:25.935Z,14.69
2022-10-13T15:28:53.834Z,14.59
2022-10-13T15:31:22.815Z,14.63
2022-10-13T15:33:51.976Z,14.55
2022-10-13T15:36:19.731Z,14.48
2022-10-13T15:38:46.877Z,14.48
2022-10-13T15:41:13.851Z,14.55
2022-10-13T15:43:40.621Z,14.57
2022-10-13T15:46:10.493Z,14.61
2022-10-13T15:48:37.539Z,14.50
2022-10-13T15:51:13.662Z,14.62
2022-10-13T15:53:40.206Z,14.63
2022-10-13T15:56:07.781Z,14.59
2022-10-13T15:58:37.703Z,14.62
2022-10-13T16:01:12.247Z,14.60
2022-10-13T16:03:39.089Z,14.61
2022-10-13T16:06:08.524Z,14.54
2022-10-13T16:08:41.049Z,14.48
2022-10-13T16:11:09.705Z,14.47
2022-10-13T16:13:36.401Z,14.46
2022-10-13T16:16:03.853Z,14.43
2022-10-13T16:18:36.392Z,14.48
2022-10-13T16:21:18.291Z,14.48
2022-10-13T16:23:46.260Z,14.49
2022-10-13T16:26:12.878Z,14.48
2022-10-13T16:28:39.467Z,14.40
2022-10-13T16:31:08.604Z,14.39
2022-10-13T16:33:35.962Z,14.23
2022-10-13T16:36:05.921Z,14.28
2022-10-13T16:38:32.790Z,14.17
2022-10-13T16:41:03.798Z,14.03
2022-10-13T16:43:30.890Z,14.13
2022-10-13T16:46:00.552Z,14.08
2022-10-13T16:48:27.830Z,14.01
2022-10-13T16:50:54.345Z,13.92
2022-10-13T16:53:21.331Z,13.98
2022-10-13T16:55:48.295Z,13.93
2022-10-13T16:58:14.935Z,13.83
2022-10-13T17:00:41.697Z,13.88
2022-10-13T17:03:10.265Z,13.87
2022-10-13T17:05:36.998Z,13.73
2022-10-13T17:08:04.765Z,13.80
2022-10-13T17:10:31.426Z,13.77
2022-10-13T17:12:57.967Z,13.77
2022-10-13T17:15:24.674Z,13.79
2022-10-13T17:17:51.317Z,13.76
2022-10-13T17:20:18.061Z,13.69
2022-10-13T17:22:44.631Z,13.75
2022-10-13T17:25:11.154Z,13.75
2022-10-13T17:27:37.926Z,13.60
2022-10-13T17:30:05.466Z,13.69
2022-10-13T17:32:32.028Z,13.70
2022-10-13T17:34:59.403Z,13.67
2022-10-13T17:37:26.477Z,13.69
2022-10-13T17:39:53.408Z,13.69
2022-10-13T17:42:19.943Z,13.70
2022-10-13T17:44:51.019Z,13.68
2022-10-13T17:47:17.828Z,13.69
2022-10-13T17:49:44.553Z,13.68
2022-10-13T17:52:11.062Z,13.64
2022-10-13T17:54:37.976Z,13.73
2022-10-13T17:57:04.459Z,13.74
2022-10-13T17:59:31.101Z,13.74
2022-10-13T18:01:57.910Z,13.78
2022-10-13T18:04:24.480Z,13.78
2022-10-13T18:06:51.015Z,13.78
2022-10-13T18:09:20.828Z,13.69
2022-10-13T18:11:50.733Z,13.65
2022-10-13T18:14:21.939Z,13.80
2022-10-13T18:16:52.671Z,13.82
2022-10-13T18:19:19.780Z,13.85
2022-10-13T18:21:46.312Z,13.79
2022-10-13T18:24:13.053Z,13.81
2022-10-13T18:26:40.536Z,13.80
2022-10-13T18:29:09.410Z,13.75
2022-10-13T18:31:38.248Z,13.64
2022-10-13T18:34:07.592Z,13.65
2022-10-13T18:36:36.468Z,13.75
2022-10-13T18:39:07.533Z,13.74
2022-10-13T18:41:36.047Z,13.75
2022-10-13T18:44:06.345Z,13.73
2022-10-13T18:46:33.785Z,13.70
2022-10-13T18:49:00.330Z,13.57
2022-10-13T18:51:29.123Z,13.68
2022-10-13T18:53:58.682Z,13.64
2022-10-13T18:56:28.600Z,13.71
2022-10-13T18:58:59.467Z,13.66
2022-10-13T19:01:28.458Z,13.67
2022-10-13T19:03:55.737Z,13.63
2022-10-13T19:06:27.282Z,13.62
2022-10-13T19:09:00.790Z,13.62
2022-10-13T19:11:28.882Z,13.62
2022-10-13T19:13:55.893Z,13.58
2022-10-13T19:16:27.282Z,13.62
2022-10-13T19:18:53.932Z,13.47
2022-10-13T19:21:22.495Z,13.60
2022-10-13T19:23:50.131Z,13.53
2022-10-13T19:26:26.707Z,13.54
2022-10-13T19:28:55.950Z,13.56
2022-10-13T19:31:25.052Z,13.53
2022-10-13T19:33:52.640Z,13.52
2022-10-13T19:36:42.335Z,13.45
2022-10-13T19:39:19.584Z,13.57
2022-10-13T19:41:49.559Z,13.61
2022-10-13T19:44:18.136Z,13.55
2022-10-13T19:46:46.419Z,13.53
2022-10-13T19:49:15.515Z,13.53
2022-10-13T19:51:42.341Z,13.48
2022-10-13T19:54:09.633Z,13.45
2022-10-13T19:56:36.404Z,13.49
2022-10-13T19:59:06.812Z,13.49
2022-10-13T20:01:40.103Z,13.48
2022-10-13T20:04:10.394Z,13.50
2022-10-13T20:06:37.393Z,13.51
2022-10-13T20:09:04.874Z,13.43
2022-10-13T20:11:31.764Z,13.48
2022-10-13T20:13:58.305Z,13.50
2022-10-13T20:16:25.725Z,13.54
2022-10-13T20:18:57.003Z,13.54
2022-10-13T20:21:24.796Z,13.55
2022-10-13T20:23:51.802Z,13.53
2022-10-13T20:26:19.293Z,13.48
2022-10-13T20:28:47.212Z,13.49
2022-10-13T20:31:15.307Z,13.49
2022-10-13T20:33:42.654Z,13.50
2022-10-13T20:36:14.543Z,13.50
2022-10-13T20:38:41.838Z,13.32
2022-10-13T20:41:08.351Z,13.41
2022-10-13T20:43:35.649Z,13.39
2022-10-13T20:46:05.307Z,13.37
2022-10-13T20:48:57.817Z,13.36
2022-10-13T20:51:25.713Z,13.35
2022-10-13T20:53:52.301Z,13.33
2022-10-13T20:56:22.016Z,13.23
2022-10-13T20:58:49.813Z,13.19
2022-10-13T21:01:17.703Z,13.28
2022-10-13T21:03:44.386Z,13.27
2022-10-13T21:06:13.690Z,13.17
2022-10-13T21:08:40.990Z,13.25
2022-10-13T21:11:10.893Z,13.10
2022-10-13T21:13:39.558Z,13.27
2022-10-13T21:16:12.178Z,13.34
2022-10-13T21:18:39.038Z,13.38
2022-10-13T21:21:07.999Z,13.36
2022-10-13T21:23:36.079Z,13.37
2022-10-13T21:26:07.316Z,13.37
2022-10-13T21:28:36.477Z,13.34
2022-10-13T21:31:11.660Z,13.26
2022-10-13T21:33:40.100Z,13.25
2022-10-13T21:36:09.860Z,13.28
2022-10-13T21:38:36.504Z,13.12
2022-10-13T21:41:10.072Z,13.16
2022-10-13T21:43:36.809Z,13.26
2022-10-13T21:46:33.669Z,13.26
2022-10-13T21:49:02.715Z,13.20
2022-10-13T21:51:32.629Z,13.29
2022-10-13T21:54:05.140Z,13.25
2022-10-13T21:56:32.716Z,13.18
2022-10-13T21:58:59.439Z,13.32
2022-10-13T22:01:26.139Z,13.25
2022-10-13T22:03:55.092Z,13.36
2022-10-13T22:06:21.939Z,13.34
2022-10-13T22:08:53.954Z,13.36
2022-10-13T22:11:21.606Z,13.39
2022-10-13T22:13:48.213Z,13.24
2022-10-13T22:16:18.615Z,13.25
2022-10-13T22:18:45.771Z,13.29
2022-10-13T22:21:15.788Z,13.38
2022-10-13T22:23:43.456Z,13.41
2022-10-13T22:26:10.727Z,13.35
2022-10-13T22:28:37.959Z,13.33
2022-10-13T22:31:09.486Z,13.36
2022-10-13T22:33:37.292Z,13.36
2022-10-13T22:36:08.987Z,13.31
2022-10-13T22:38:35.997Z,13.27
2022-10-13T22:41:04.112Z,13.25
2022-10-13T22:43:30.739Z,13.23
2022-10-13T22:45:57.531Z,13.10
2022-10-13T22:48:25.286Z,13.18
2022-10-13T22:50:52.241Z,13.17
2022-10-13T22:53:18.747Z,13.10
2022-10-13T22:55:45.508Z,13.02
2022-10-13T22:58:12.374Z,13.11
2022-10-13T23:00:39.453Z,13.03
2022-10-13T23:03:06.247Z,13.06
2022-10-13T23:05:32.901Z,13.09
2022-10-13T23:07:59.498Z,13.03
2022-10-13T23:10:26.015Z,13.03
2022-10-13T23:12:52.519Z,13.03
2022-10-13T23:15:19.076Z,13.12
2022-10-13T23:17:45.566Z,13.03
2022-10-13T23:20:12.339Z,13.16
2022-10-13T23:22:38.872Z,13.17
2022-10-13T23:25:05.722Z,13.07
2022-10-13T23:27:32.268Z,13.18
2022-10-13T23:29:58.785Z,13.19
2022-10-13T23:32:25.418Z,13.17
2022-10-13T23:34:51.946Z,13.21
2022-10-13T23:37:18.735Z,13.24
2022-10-13T23:39:45.631Z,13.28
2022-10-13T23:42:12.123Z,13.27
2022-10-13T23:44:38.644Z,13.19
2022-10-13T23:47:05.282Z,13.30
2022-10-13T23:49:31.817Z,13.29
2022-10-13T23:51:58.299Z,13.21
2022-10-13T23:54:24.813Z,13.32
2022-10-13T23:56:51.324Z,13.33
2022-10-13T23:59:17.843Z,13.33
